Time;durP1;ratioP1;P1;durP2;ratioP2;P2;SDS_P1;SDS_P2;PMS_P1;PMS_P2;Temp;Humidity;BMP_temperature;BMP_pressure;BME280_temperature;BME280_humidity;BME280_pressure;Samples;Min_cycle;Max_cycle;Signal;HPM_P1;HPM_P2
2022/10/01 00:01:01;;;;;;;;;;;;;;;;;;4958343;28;19929;-91
2022/10/01 00:03:27;;;;;;;;;;;;;;;;;;4958227;28;19922;-91
2022/10/01 00:06:04;;;;;;;;;;;;;;;;;;4958163;28;19969;-91
2022/10/01 00:08:30;;;;;;;;;;;;;;;;;;4958396;28;19918;-92
2022/10/01 00:11:00;;;;;;;;;;;;;;;;;;4957499;28;19972;-92
2022/10/01 00:13:25;;;;;;;;;;;;;;;;;;4957808;28;19918;-92
2022/10/01 00:15:51;;;;;;;;;;;;;;;;;;4957859;28;19930;-91
2022/10/01 00:18:16;;;;;;;;;;;;;;;;;;4957727;28;19977;-93
2022/10/01 00:20:42;;;;;;;;;;;;;;;;;;4958139;28;19918;-92
2022/10/01 00:23:08;;;;;;;;;;;;;;;;;;4957433;28;19928;-92
2022/10/01 00:25:36;;;;;;;;;;;;;;;;;;4957710;28;19922;-92
2022/10/01 00:28:02;;;;;;;;;;;;;;;;;;4957471;28;20301;-91
2022/10/01 00:30:27;;;;;;;;;;;;;;;;;;4957508;28;19922;-92
2022/10/01 00:32:53;;;;;;;;;;;;;;;;;;4957209;28;19925;-93
2022/10/01 00:35:19;;;;;;;;;;;;;;;;;;4957435;28;19926;-91
2022/10/01 00:37:46;;;;;;;;;;;;;;;;;;4957900;28;19918;-92
2022/10/01 00:40:12;;;;;;;;;;;;;;;;;;4957599;28;20066;-91
2022/10/01 00:42:37;;;;;;;;;;;;;;;;;;4957861;28;20374;-92
2022/10/01 00:45:03;;;;;;;;;;;;;;;;;;4957574;28;20393;-91
2022/10/01 00:47:40;;;;;;;;;;;;;;;;;;4957639;28;19918;-89
2022/10/01 00:50:15;;;;;;;;;;;;;;;;;;4957658;28;20514;-89
2022/10/01 00:52:56;;;;;;;;;;;;;;;;;;4960156;28;19918;-91
2022/10/01 00:55:46;;;;;;;;;;;;;;;;;;4976102;28;19928;-90
2022/10/01 00:58:13;;;;;;;;;;;;;;;;;;4951962;28;20294;-91
2022/10/01 01:00:39;;;;;;;;;;;;;;;;;;4957572;28;20378;-91
2022/10/01 01:03:08;;;;;;;;;;;;;;;;;;4957528;28;19918;-91
2022/10/01 01:05:36;;;;;;;;;;;;;;;;;;4957327;28;19929;-92
2022/10/01 01:08:02;;;;;;;;;;;;;;;;;;4957216;28;19968;-92
2022/10/01 01:10:40;;;;;;;;;;;;;;;;;;4957264;28;19922;-90
2022/10/01 01:13:17;;;;;;;;;;;;;;;;;;4956694;28;19968;-90
2022/10/01 01:15:59;;;;;;;;;;;;;;;;;;4957536;28;19925;-90
2022/10/01 01:18:24;;;;;;;;;;;;;;;;;;4957392;28;19926;-93
2022/10/01 01:21:09;;;;;;;;;;;;;;;;;;4957716;28;19969;-91
2022/10/01 01:23:53;;;;;;;;;;;;;;;;;;4974870;28;19960;-92
2022/10/01 01:26:26;;;;;;;;;;;;;;;;;;4974856;28;20392;-93
2022/10/01 01:28:56;;;;;;;;;;;;;;;;;;4973422;28;19922;-91
2022/10/01 01:31:24;;;;;;;;;;;;;;;;;;4955328;28;20405;-92
2022/10/01 01:33:52;;;;;;;;;;;;;;;;;;4957254;28;19973;-91
2022/10/01 01:36:19;;;;;;;;;;;;;;;;;;4957916;28;19977;-93
2022/10/01 01:38:53;;;;;;;;;;;;;;;;;;4958048;28;19968;-92
2022/10/01 01:41:21;;;;;;;;;;;;;;;;;;4957782;28;19925;-91
2022/10/01 01:43:50;;;;;;;;;;;;;;;;;;4957229;28;19922;-91
2022/10/01 01:46:16;;;;;;;;;;;;;;;;;;4957230;28;19925;-93
2022/10/01 01:48:46;;;;;;;;;;;;;;;;;;4957235;28;19922;-92
2022/10/01 01:51:31;;;;;;;;;;;;;;;;;;4968572;28;20301;-91
2022/10/01 01:53:57;;;;;;;;;;;;;;;;;;4984867;28;20005;-93
2022/10/01 01:56:23;;;;;;;;;;;;;;;;;;4992920;28;19910;-92
2022/10/01 01:58:49;;;;;;;;;;;;;;;;;;4993416;28;19930;-92
2022/10/01 02:01:33;;;;;;;;;;;;;;;;;;4971321;28;20017;-91
2022/10/01 02:04:01;;;;;;;;;;;;;;;;;;4939675;29;19925;-93
2022/10/01 02:06:46;;;;;;;;;;;;;;;;;;4942629;29;19918;-92
2022/10/01 02:09:13;;;;;;;;;;;;;;;;;;4941379;29;19958;-91
2022/10/01 02:11:49;;;;;;;;;;;;;;;;;;4958620;29;19926;-91
2022/10/01 02:14:20;;;;;;;;;;;;;;;;;;4941192;29;20013;-92
2022/10/01 02:16:51;;;;;;;;;;;;;;;;;;4958398;29;19918;-94
2022/10/01 02:19:30;;;;;;;;;;;;;;;;;;4958495;29;19965;-91
2022/10/01 02:22:01;;;;;;;;;;;;;;;;;;4941456;29;20322;-92
2022/10/01 02:24:30;;;;;;;;;;;;;;;;;;4958458;29;19918;-91
2022/10/01 02:26:57;;;;;;;;;;;;;;;;;;4941210;29;19918;-91
2022/10/01 02:29:23;;;;;;;;;;;;;;;;;;4941078;29;19968;-92
2022/10/01 02:31:52;;;;;;;;;;;;;;;;;;4940818;28;20421;-92
2022/10/01 02:34:19;;;;;;;;;;;;;;;;;;4940561;29;19918;-92
2022/10/01 02:36:45;;;;;;;;;;;;;;;;;;4940829;29;19969;-92
2022/10/01 02:39:13;;;;;;;;;;;;;;;;;;4958087;29;19927;-94
2022/10/01 02:41:40;;;;;;;;;;;;;;;;;;4940665;29;19918;-91
2022/10/01 02:44:11;;;;;;;;;;;;;;;;;;4939960;29;19922;-91
2022/10/01 02:46:43;;;;;;;;;;;;;;;;;;4957532;29;20013;-91
2022/10/01 02:49:12;;;;;;;;;;;;;;;;;;4940101;29;20330;-92
2022/10/01 02:51:38;;;;;;;;;;;;;;;;;;4940406;29;20389;-93
2022/10/01 02:54:09;;;;;;;;;;;;;;;;;;4940127;29;20318;-92
2022/10/01 02:59:21;;;;;;;;;;;;;;;;;;4958745;29;19924;-92
2022/10/01 03:01:47;;;;;;;;;;;;;;;;;;4940688;29;20398;-93
2022/10/01 03:04:12;;;;;;;;;;;;;;;;;;4940147;29;19958;-94
2022/10/01 03:06:38;;;;;;;;;;;;;;;;;;4940845;29;20375;-92
2022/10/01 03:09:03;;;;;;;;;;;;;;;;;;4940842;29;19926;-92
2022/10/01 03:11:29;;;;;;;;;;;;;;;;;;4940135;29;19929;-93
2022/10/01 03:13:57;;;;;;;;;;;;;;;;;;4939555;29;20286;-93
2022/10/01 03:16:26;;;;;;;;;;;;;;;;;;4939638;29;19960;-91
2022/10/01 03:18:51;;;;;;;;;;;;;;;;;;4940745;29;19926;-91
2022/10/01 03:21:16;;;;;;;;;;;;;;;;;;4957542;28;19919;-92
2022/10/01 03:23:45;;;;;;;;;;;;;;;;;;4940021;29;19918;-92
2022/10/01 03:26:10;;;;;;;;;;;;;;;;;;4957165;29;19923;-92
2022/10/01 03:28:39;;;;;;;;;;;;;;;;;;4974695;28;19922;-91
2022/10/01 03:31:05;;;;;;;;;;;;;;;;;;4959307;28;20294;-91
2022/10/01 03:33:30;;;;;;;;;;;;;;;;;;4976037;28;19914;-90
2022/10/01 03:35:56;;;;;;;;;;;;;;;;;;4958711;28;19925;-93
2022/10/01 03:38:24;;;;;;;;;;;;;;;;;;4959313;28;19918;-93
2022/10/01 03:40:53;;;;;;;;;;;;;;;;;;4959022;28;19918;-91
2022/10/01 03:43:19;;;;;;;;;;;;;;;;;;4959274;28;19925;-93
2022/10/01 03:45:47;;;;;;;;;;;;;;;;;;4958305;28;19941;-93
2022/10/01 03:48:13;;;;;;;;;;;;;;;;;;4976158;28;19922;-91
2022/10/01 03:50:38;;;;;;;;;;;;;;;;;;4958651;28;19918;-92
2022/10/01 03:53:11;;;;;;;;;;;;;;;;;;4957892;28;19918;-91
2022/10/01 03:55:36;;;;;;;;;;;;;;;;;;4958610;28;19974;-93
2022/10/01 03:58:08;;;;;;;;;;;;;;;;;;4958359;28;19926;-91
2022/10/01 04:00:33;;;;;;;;;;;;;;;;;;4960167;28;19922;-93
2022/10/01 04:02:59;;;;;;;;;;;;;;;;;;4959479;28;19948;-93
2022/10/01 04:05:27;;;;;;;;;;;;;;;;;;4975980;28;19964;-93
2022/10/01 04:07:53;;;;;;;;;;;;;;;;;;4958015;28;20290;-92
2022/10/01 04:10:18;;;;;;;;;;;;;;;;;;4958606;28;19918;-92
2022/10/01 04:12:44;;;;;;;;;;;;;;;;;;4957358;28;19918;-91
2022/10/01 04:15:09;;;;;;;;;;;;;;;;;;4957823;28;19942;-92
2022/10/01 04:17:35;;;;;;;;;;;;;;;;;;4958462;28;19918;-93
2022/10/01 04:20:00;;;;;;;;;;;;;;;;;;4958443;28;19918;-92
2022/10/01 04:22:26;;;;;;;;;;;;;;;;;;4956933;28;19972;-91
2022/10/01 04:25:16;;;;;;;;;;;;;;;;;;4975166;28;19922;-94
2022/10/01 04:27:53;;;;;;;;;;;;;;;;;;4957310;28;19925;-91
2022/10/01 04:30:19;;;;;;;;;;;;;;;;;;4954788;29;19922;-93
2022/10/01 04:32:46;;;;;;;;;;;;;;;;;;4955660;28;19919;-92
2022/10/01 04:35:11;;;;;;;;;;;;;;;;;;4952890;29;19929;-92
2022/10/01 04:37:37;;;;;;;;;;;;;;;;;;4937335;29;19970;-93
2022/10/01 04:40:02;;;;;;;;;;;;;;;;;;4937689;29;20286;-91
2022/10/01 04:42:28;;;;;;;;;;;;;;;;;;4938447;29;19964;-93
2022/10/01 04:44:53;;;;;;;;;;;;;;;;;;4955793;29;19945;-95
2022/10/01 04:47:22;;;;;;;;;;;;;;;;;;4954243;29;20034;-92
2022/10/01 04:49:54;;;;;;;;;;;;;;;;;;4938585;29;19930;-91
2022/10/01 04:52:19;;;;;;;;;;;;;;;;;;4938707;29;20418;-92
2022/10/01 04:54:44;;;;;;;;;;;;;;;;;;4955221;28;19918;-91
2022/10/01 04:57:11;;;;;;;;;;;;;;;;;;4954743;29;20290;-93
2022/10/01 04:59:36;;;;;;;;;;;;;;;;;;4938897;29;19926;-92
2022/10/01 05:02:01;;;;;;;;;;;;;;;;;;4938962;29;19918;-93
2022/10/01 05:04:27;;;;;;;;;;;;;;;;;;4956021;29;19925;-92
2022/10/01 05:06:52;;;;;;;;;;;;;;;;;;4954186;29;20307;-92
2022/10/01 05:09:18;;;;;;;;;;;;;;;;;;4954373;29;19923;-93
2022/10/01 05:11:43;;;;;;;;;;;;;;;;;;4954556;29;19919;-93
2022/10/01 05:14:10;;;;;;;;;;;;;;;;;;4955232;28;20031;-93
2022/10/01 05:16:41;;;;;;;;;;;;;;;;;;4938215;29;19918;-91
2022/10/01 05:19:07;;;;;;;;;;;;;;;;;;4954595;29;19922;-91
2022/10/01 05:21:32;;;;;;;;;;;;;;;;;;4955838;29;19973;-93
2022/10/01 05:23:57;;;;;;;;;;;;;;;;;;4957379;29;19977;-92
2022/10/01 05:29:26;;;;;;;;;;;;;;;;;;4983465;23;20304;-93
2022/10/01 05:32:30;;;;;;;;;;;;;;;;;;4953656;28;19926;-90
2022/10/01 05:38:03;;;;;;;;;;;;;;;;;;4975424;28;19944;-90
2022/10/01 05:40:58;;;;;;;;;;;;;;;;;;4961658;28;19953;-91
2022/10/01 05:43:25;;;;;;;;;;;;;;;;;;4943176;29;20002;-91
2022/10/01 05:45:58;;;;;;;;;;;;;;;;;;4959940;29;20294;-90
2022/10/01 05:48:23;;;;;;;;;;;;;;;;;;4942500;28;19953;-89
2022/10/01 05:51:31;;;;;;;;;;;;;;;;;;5033436;23;19926;-91
2022/10/01 05:54:00;;;;;;;;;;;;;;;;;;4941478;29;19927;-92
2022/10/01 05:56:34;;;;;;;;;;;;;;;;;;4942445;29;19923;-92
2022/10/01 05:59:16;;;;;;;;;;;;;;;;;;4942132;29;19926;-94
2022/10/01 06:01:45;;;;;;;;;;;;;;;;;;4968284;23;19957;-93
2022/10/01 06:04:10;;;;;;;;;;;;;;;;;;4976342;28;19913;-93
2022/10/01 06:06:45;;;;;;;;;;;;;;;;;;5031685;23;19922;-94
2022/10/01 06:09:11;;;;;;;;;;;;;;;;;;4978698;28;19957;-94
2022/10/01 06:11:40;;;;;;;;;;;;;;;;;;4984124;28;19989;-93
2022/10/01 06:14:06;;;;;;;;;;;;;;;;;;4965846;28;19922;-93
2022/10/01 06:16:32;;;;;;;;;;;;;;;;;;4981012;28;19940;-92
2022/10/01 06:18:57;;;;;;;;;;;;;;;;;;4961977;28;20330;-93
2022/10/01 06:21:37;;;;;;;;;;;;;;;;;;4978657;28;19919;-93
2022/10/01 06:24:03;;;;;;;;;;;;;;;;;;4961542;28;20012;-92
2022/10/01 06:26:29;;;;;;;;;;;;;;;;;;4979108;28;19960;-94
2022/10/01 06:28:54;;;;;;;;;;;;;;;;;;4962357;28;19922;-93
2022/10/01 06:31:20;;;;;;;;;;;;;;;;;;4978069;28;19969;-93
2022/10/01 06:33:48;;;;;;;;;;;;;;;;;;4981993;28;20401;-93
2022/10/01 06:36:14;;;;;;;;;;;;;;;;;;4966312;28;19925;-94
2022/10/01 06:38:57;;;;;;;;;;;;;;;;;;4988757;28;19918;-92
2022/10/01 06:41:22;;;;;;;;;;;;;;;;;;4984283;28;19925;-93
2022/10/01 06:43:48;;;;;;;;;;;;;;;;;;4991989;28;19926;-93
2022/10/01 06:46:14;;;;;;;;;;;;;;;;;;4980846;28;19918;-93
2022/10/01 06:48:39;;;;;;;;;;;;;;;;;;4983626;28;19925;-92
2022/10/01 06:51:05;;;;;;;;;;;;;;;;;;4980153;28;19922;-91
2022/10/01 06:53:33;;;;;;;;;;;;;;;;;;4987878;28;19918;-91
2022/10/01 06:56:04;;;;;;;;;;;;;;;;;;4972551;28;19922;-91
2022/10/01 06:58:31;;;;;;;;;;;;;;;;;;5008221;23;19933;-92
2022/10/01 07:01:00;;;;;;;;;;;;;;;;;;4979422;28;20265;-93
2022/10/01 07:03:28;;;;;;;;;;;;;;;;;;4972731;28;19918;-92
2022/10/01 07:05:53;;;;;;;;;;;;;;;;;;4964856;28;19925;-91
2022/10/01 07:08:19;;;;;;;;;;;;;;;;;;4965896;28;20340;-91
2022/10/01 07:10:45;;;;;;;;;;;;;;;;;;4978314;28;19918;-92
2022/10/01 07:13:17;;;;;;;;;;;;;;;;;;4977871;28;20065;-92
2022/10/01 07:15:43;;;;;;;;;;;;;;;;;;4961150;28;19986;-94
2022/10/01 07:18:15;;;;;;;;;;;;;;;;;;4977533;28;19929;-93
2022/10/01 07:20:44;;;;;;;;;;;;;;;;;;4960572;28;19924;-93
2022/10/01 07:23:10;;;;;;;;;;;;;;;;;;4959674;28;19929;-93
2022/10/01 07:25:37;;;;;;;;;;;;;;;;;;4963613;28;20012;-93
2022/10/01 07:28:04;;;;;;;;;;;;;;;;;;4964071;28;19918;-93
2022/10/01 07:30:35;;;;;;;;;;;;;;;;;;4960630;28;20326;-93
2022/10/01 07:33:00;;;;;;;;;;;;;;;;;;4960189;28;19922;-92
2022/10/01 07:35:27;;;;;;;;;;;;;;;;;;4979232;28;20382;-93
2022/10/01 07:38:20;;;;;;;;;;;;;;;;;;4958993;28;19957;-91
2022/10/01 07:40:50;;;;;;;;;;;;;;;;;;4960019;28;19918;-93
2022/10/01 07:43:15;;;;;;;;;;;;;;;;;;4977066;28;19925;-92
2022/10/01 07:45:42;;;;;;;;;;;;;;;;;;4976535;28;19922;-91
2022/10/01 07:48:08;;;;;;;;;;;;;;;;;;4959914;28;19925;-90
2022/10/01 07:50:33;;;;;;;;;;;;;;;;;;4959603;28;19922;-92
2022/10/01 07:52:59;;;;;;;;;;;;;;;;;;4975888;28;20018;-93
2022/10/01 07:55:27;;;;;;;;;;;;;;;;;;4957874;28;19957;-90
2022/10/01 07:57:54;;;;;;;;;;;;;;;;;;4975318;28;19922;-92
2022/10/01 08:00:20;;;;;;;;;;;;;;;;;;4975763;28;19926;-92
2022/10/01 08:02:46;;;;;;;;;;;;;;;;;;4959130;28;19937;-91
2022/10/01 08:05:17;;;;;;;;;;;;;;;;;;4974239;28;19929;-90
2022/10/01 08:07:43;;;;;;;;;;;;;;;;;;4975759;28;19929;-91
2022/10/01 08:10:09;;;;;;;;;;;;;;;;;;4975549;28;19945;-92
2022/10/01 08:12:34;;;;;;;;;;;;;;;;;;4959156;28;19919;-90
2022/10/01 08:15:01;;;;;;;;;;;;;;;;;;4980773;28;19918;-90
2022/10/01 08:17:27;;;;;;;;;;;;;;;;;;4981171;28;19918;-91
2022/10/01 08:19:52;;;;;;;;;;;;;;;;;;4957779;28;20433;-93
2022/10/01 08:22:17;;;;;;;;;;;;;;;;;;4962418;28;19933;-93
2022/10/01 08:24:43;;;;;;;;;;;;;;;;;;4965824;28;20016;-92
2022/10/01 08:27:08;;;;;;;;;;;;;;;;;;4955177;28;19926;-93
2022/10/01 08:29:34;;;;;;;;;;;;;;;;;;4958185;28;19922;-94
2022/10/01 08:31:59;;;;;;;;;;;;;;;;;;4975731;28;19928;-93
2022/10/01 08:34:24;;;;;;;;;;;;;;;;;;4957756;28;19922;-93
2022/10/01 08:36:50;;;;;;;;;;;;;;;;;;4958068;28;19922;-93
2022/10/01 08:39:16;;;;;;;;;;;;;;;;;;4956116;28;19926;-93
2022/10/01 08:42:00;;;;;;;;;;;;;;;;;;4974733;28;19925;-91
2022/10/01 08:44:45;;;;;;;;;;;;;;;;;;4976459;28;19925;-93
2022/10/01 08:47:49;;;;;;;;;;;;;;;;;;4966394;28;19929;-93
2022/10/01 08:50:29;;;;;;;;;;;;;;;;;;4918426;29;19980;-94
2022/10/01 08:52:59;;;;;;;;;;;;;;;;;;4917681;29;19918;-93
2022/10/01 08:55:26;;;;;;;;;;;;;;;;;;4933989;29;19919;-93
2022/10/01 08:57:59;;;;;;;;;;;;;;;;;;4930891;29;20399;-93
2022/10/01 09:00:26;;;;;;;;;;;;;;;;;;4935240;29;19942;-93
2022/10/01 09:02:51;;;;;;;;;;;;;;;;;;4937693;29;19926;-91
2022/10/01 09:05:32;;;;;;;;;;;;;;;;;;4935494;29;19922;-93
2022/10/01 09:08:05;;;;;;;;;;;;;;;;;;4914091;29;19919;-92
2022/10/01 09:10:41;;;;;;;;;;;;;;;;;;4917734;29;19946;-91
2022/10/01 09:13:35;;;;;;;;;;;;;;;;;;4926481;29;19930;-91
2022/10/01 09:16:19;;;;;;;;;;;;;;;;;;4921064;29;19919;-93
2022/10/01 09:19:04;;;;;;;;;;;;;;;;;;4932733;29;19962;-92
2022/10/01 09:21:53;;;;;;;;;;;;;;;;;;4958741;28;19937;-93
2022/10/01 09:24:27;;;;;;;;;;;;;;;;;;4955767;28;19929;-90
2022/10/01 09:26:52;;;;;;;;;;;;;;;;;;4973518;28;20689;-91
2022/10/01 09:29:23;;;;;;;;;;;;;;;;;;4957977;28;20017;-92
2022/10/01 09:31:49;;;;;;;;;;;;;;;;;;4958386;28;19922;-91
2022/10/01 09:34:15;;;;;;;;;;;;;;;;;;4955471;28;20329;-92
2022/10/01 09:36:59;;;;;;;;;;;;;;;;;;4973230;28;19918;-91
2022/10/01 09:39:40;;;;;;;;;;;;;;;;;;4973737;28;19922;-91
2022/10/01 09:42:06;;;;;;;;;;;;;;;;;;4973634;28;19918;-92
2022/10/01 09:44:32;;;;;;;;;;;;;;;;;;4956989;28;19922;-91
2022/10/01 09:46:58;;;;;;;;;;;;;;;;;;4974475;28;20437;-90
2022/10/01 09:49:30;;;;;;;;;;;;;;;;;;4974105;28;19918;-90
2022/10/01 09:52:01;;;;;;;;;;;;;;;;;;4958124;28;20287;-90
2022/10/01 09:54:31;;;;;;;;;;;;;;;;;;4973824;28;19918;-92
2022/10/01 09:57:19;;;;;;;;;;;;;;;;;;4973600;28;20457;-89
2022/10/01 09:59:44;;;;;;;;;;;;;;;;;;4974329;28;20370;-91
2022/10/01 10:02:24;;;;;;;;;;;;;;;;;;4983963;28;19933;-91
2022/10/01 10:05:00;;;;;;;;;;;;;;;;;;4964749;28;19910;-93
2022/10/01 10:07:25;;;;;;;;;;;;;;;;;;4986374;28;19925;-90
2022/10/01 10:09:51;;;;;;;;;;;;;;;;;;4967996;28;20397;-93
2022/10/01 10:12:35;;;;;;;;;;;;;;;;;;4959715;28;19918;-94
2022/10/01 10:15:08;;;;;;;;;;;;;;;;;;4961015;28;19969;-92
2022/10/01 10:17:35;;;;;;;;;;;;;;;;;;4973822;28;20499;-93
2022/10/01 10:20:00;;;;;;;;;;;;;;;;;;4974271;28;19976;-90
2022/10/01 10:22:26;;;;;;;;;;;;;;;;;;4973860;28;20406;-91
2022/10/01 10:24:53;;;;;;;;;;;;;;;;;;4956394;28;20436;-92
2022/10/01 10:27:26;;;;;;;;;;;;;;;;;;4959309;28;20061;-93
2022/10/01 10:30:02;;;;;;;;;;;;;;;;;;4977384;28;20395;-93
2022/10/01 10:32:28;;;;;;;;;;;;;;;;;;4976873;28;20330;-92
2022/10/01 10:34:55;;;;;;;;;;;;;;;;;;4959633;28;19969;-92
2022/10/01 10:37:27;;;;;;;;;;;;;;;;;;4976694;28;19961;-92
2022/10/01 10:39:52;;;;;;;;;;;;;;;;;;4977273;28;20017;-92
2022/10/01 10:42:18;;;;;;;;;;;;;;;;;;4976917;28;19958;-90
2022/10/01 10:44:45;;;;;;;;;;;;;;;;;;4977045;28;19922;-92
2022/10/01 10:47:15;;;;;;;;;;;;;;;;;;4959201;28;20374;-93
2022/10/01 10:49:44;;;;;;;;;;;;;;;;;;4976341;28;20362;-91
2022/10/01 10:52:36;;;;;;;;;;;;;;;;;;4959639;28;19918;-93
2022/10/01 10:55:22;;;;;;;;;;;;;;;;;;4972176;28;20013;-93
2022/10/01 10:57:47;;;;;;;;;;;;;;;;;;4975353;28;20437;-93
2022/10/01 11:00:17;;;;;;;;;;;;;;;;;;4959198;28;19922;-91
2022/10/01 11:03:08;;;;;;;;;;;;;;;;;;4976731;28;19921;-91
2022/10/01 11:05:40;;;;;;;;;;;;;;;;;;4972828;28;20012;-93
2022/10/01 11:08:07;;;;;;;;;;;;;;;;;;4976394;28;20041;-93
2022/10/01 11:10:41;;;;;;;;;;;;;;;;;;4976623;28;20016;-91
2022/10/01 11:13:07;;;;;;;;;;;;;;;;;;4976584;28;19920;-91
2022/10/01 11:15:40;;;;;;;;;;;;;;;;;;4975615;28;19918;-91
2022/10/01 11:18:09;;;;;;;;;;;;;;;;;;4976015;28;19965;-91
2022/10/01 11:20:34;;;;;;;;;;;;;;;;;;4976403;28;19926;-91
2022/10/01 11:23:18;;;;;;;;;;;;;;;;;;4976392;28;19914;-89
2022/10/01 11:25:46;;;;;;;;;;;;;;;;;;4958866;28;20008;-90
2022/10/01 11:28:33;;;;;;;;;;;;;;;;;;4975818;28;20321;-90
2022/10/01 11:31:01;;;;;;;;;;;;;;;;;;4976024;28;19929;-91
2022/10/01 11:33:32;;;;;;;;;;;;;;;;;;4958571;28;19982;-91
2022/10/01 11:36:10;;;;;;;;;;;;;;;;;;4975527;28;20016;-89
2022/10/01 11:38:36;;;;;;;;;;;;;;;;;;4958094;28;20407;-90
2022/10/01 11:41:12;;;;;;;;;;;;;;;;;;4975897;28;20293;-90
2022/10/01 11:44:04;;;;;;;;;;;;;;;;;;4975823;28;19922;-91
2022/10/01 11:46:50;;;;;;;;;;;;;;;;;;4945881;28;19945;-90
2022/10/01 11:49:22;;;;;;;;;;;;;;;;;;4958244;28;19925;-91
2022/10/01 11:51:51;;;;;;;;;;;;;;;;;;4958061;28;19914;-90
2022/10/01 11:54:19;;;;;;;;;;;;;;;;;;4975501;28;20293;-90
2022/10/01 11:59:39;;;;;;;;;;;;;;;;;;4975310;28;20381;-90
2022/10/01 12:02:13;;;;;;;;;;;;;;;;;;4975529;28;19922;-90
2022/10/01 12:04:44;;;;;;;;;;;;;;;;;;4975700;28;19949;-92
2022/10/01 12:07:14;;;;;;;;;;;;;;;;;;4975276;28;19918;-92
2022/10/01 12:09:46;;;;;;;;;;;;;;;;;;4975244;28;19930;-91
2022/10/01 12:12:16;;;;;;;;;;;;;;;;;;4957848;28;19921;-91
2022/10/01 12:14:44;;;;;;;;;;;;;;;;;;4975220;28;19934;-91
2022/10/01 12:17:16;;;;;;;;;;;;;;;;;;4974462;28;19918;-91
2022/10/01 12:19:45;;;;;;;;;;;;;;;;;;4957560;28;19922;-92
2022/10/01 12:22:10;;;;;;;;;;;;;;;;;;4975126;28;20389;-92
2022/10/01 12:24:41;;;;;;;;;;;;;;;;;;4975395;28;20000;-91
2022/10/01 12:27:25;;;;;;;;;;;;;;;;;;4974888;28;19966;-90
2022/10/01 12:29:56;;;;;;;;;;;;;;;;;;4975115;28;20036;-91
2022/10/01 12:32:21;;;;;;;;;;;;;;;;;;4957398;28;19929;-90
2022/10/01 12:34:55;;;;;;;;;;;;;;;;;;4974836;28;19918;-92
2022/10/01 12:37:40;;;;;;;;;;;;;;;;;;4974390;28;20041;-90
2022/10/01 12:40:13;;;;;;;;;;;;;;;;;;4974736;28;20021;-89
2022/10/01 12:42:56;;;;;;;;;;;;;;;;;;4974827;28;19918;-90
2022/10/01 12:45:45;;;;;;;;;;;;;;;;;;4975014;28;19922;-90
2022/10/01 12:48:12;;;;;;;;;;;;;;;;;;4974032;28;19968;-91
2022/10/01 12:50:42;;;;;;;;;;;;;;;;;;4974837;28;19926;-90
2022/10/01 12:53:07;;;;;;;;;;;;;;;;;;4957423;28;19922;-90
2022/10/01 12:55:53;;;;;;;;;;;;;;;;;;4974218;28;20021;-92
2022/10/01 12:58:37;;;;;;;;;;;;;;;;;;4974104;28;19953;-92
2022/10/01 13:01:03;;;;;;;;;;;;;;;;;;4957259;28;19957;-91
2022/10/01 13:03:44;;;;;;;;;;;;;;;;;;4974402;28;19934;-90
2022/10/01 13:06:18;;;;;;;;;;;;;;;;;;4974577;28;19918;-91
2022/10/01 13:08:57;;;;;;;;;;;;;;;;;;4973532;28;21435;-91
2022/10/01 13:11:29;;;;;;;;;;;;;;;;;;4974760;28;19922;-91
2022/10/01 13:13:55;;;;;;;;;;;;;;;;;;4957279;28;20385;-93
2022/10/01 13:16:30;;;;;;;;;;;;;;;;;;4957686;28;19918;-93
2022/10/01 13:18:59;;;;;;;;;;;;;;;;;;4975469;28;19918;-92
2022/10/01 13:21:36;;;;;;;;;;;;;;;;;;4975000;28;19922;-92
2022/10/01 13:24:28;;;;;;;;;;;;;;;;;;4974777;28;19941;-91
2022/10/01 13:27:16;;;;;;;;;;;;;;;;;;4955454;28;19918;-91
2022/10/01 13:29:42;;;;;;;;;;;;;;;;;;4974356;28;20437;-93
2022/10/01 13:32:24;;;;;;;;;;;;;;;;;;4974846;28;19949;-92
2022/10/01 13:34:50;;;;;;;;;;;;;;;;;;4979587;28;19977;-93
2022/10/01 13:37:16;;;;;;;;;;;;;;;;;;4956524;28;19918;-92
2022/10/01 13:39:45;;;;;;;;;;;;;;;;;;4975716;28;19924;-92
2022/10/01 13:42:31;;;;;;;;;;;;;;;;;;4958028;28;19931;-92
2022/10/01 13:44:58;;;;;;;;;;;;;;;;;;4946467;28;19973;-93
2022/10/01 13:47:24;;;;;;;;;;;;;;;;;;4975894;28;19971;-92
2022/10/01 13:49:54;;;;;;;;;;;;;;;;;;4957371;28;19945;-93
2022/10/01 13:52:19;;;;;;;;;;;;;;;;;;4974871;28;20297;-94
2022/10/01 13:54:46;;;;;;;;;;;;;;;;;;4973575;28;19918;-91
2022/10/01 13:57:29;;;;;;;;;;;;;;;;;;4985187;28;19930;-93
2022/10/01 13:59:59;;;;;;;;;;;;;;;;;;4991265;28;19922;-94
2022/10/01 14:02:28;;;;;;;;;;;;;;;;;;4968305;28;19922;-93
2022/10/01 14:04:54;;;;;;;;;;;;;;;;;;4980545;28;19929;-93
2022/10/01 14:07:22;;;;;;;;;;;;;;;;;;4980087;28;19985;-93
2022/10/01 14:09:49;;;;;;;;;;;;;;;;;;4978760;28;19929;-92
2022/10/01 14:18:09;;;;;;;;;;;;;;;;;;4977907;28;20298;-93
2022/10/01 14:20:49;;;;;;;;;;;;;;;;;;4977898;28;19922;-93
2022/10/01 14:23:16;;;;;;;;;;;;;;;;;;4978070;28;19918;-93
2022/10/01 14:25:54;;;;;;;;;;;;;;;;;;4978340;28;19972;-94
2022/10/01 14:28:28;;;;;;;;;;;;;;;;;;4960969;28;20267;-92
2022/10/01 14:31:14;;;;;;;;;;;;;;;;;;4985058;28;20374;-94
2022/10/01 14:33:52;;;;;;;;;;;;;;;;;;4962080;28;20294;-94
2022/10/01 14:36:28;;;;;;;;;;;;;;;;;;4978360;28;20378;-93
2022/10/01 14:39:13;;;;;;;;;;;;;;;;;;4960228;28;20416;-95
2022/10/01 14:41:39;;;;;;;;;;;;;;;;;;4960647;28;19928;-94
2022/10/01 14:44:20;;;;;;;;;;;;;;;;;;4978349;28;20297;-93
2022/10/01 14:46:46;;;;;;;;;;;;;;;;;;4960525;28;19918;-92
2022/10/01 14:49:19;;;;;;;;;;;;;;;;;;4977511;28;19925;-94
2022/10/01 14:51:50;;;;;;;;;;;;;;;;;;4979128;28;19918;-93
2022/10/01 14:54:17;;;;;;;;;;;;;;;;;;4977705;28;19926;-93
2022/10/01 14:56:42;;;;;;;;;;;;;;;;;;4959587;28;20391;-94
2022/10/01 14:59:12;;;;;;;;;;;;;;;;;;4977725;28;20016;-94
2022/10/01 15:01:38;;;;;;;;;;;;;;;;;;4960786;28;19914;-93
2022/10/01 15:04:12;;;;;;;;;;;;;;;;;;4961172;28;19940;-93
2022/10/01 15:06:41;;;;;;;;;;;;;;;;;;4960848;28;19918;-93
2022/10/01 15:09:11;;;;;;;;;;;;;;;;;;4960641;28;20289;-94
2022/10/01 15:11:38;;;;;;;;;;;;;;;;;;4979253;28;19922;-94
2022/10/01 15:14:05;;;;;;;;;;;;;;;;;;4978074;28;19918;-93
2022/10/01 15:16:31;;;;;;;;;;;;;;;;;;4977918;28;19964;-94
2022/10/01 15:18:59;;;;;;;;;;;;;;;;;;4962411;28;19918;-94
2022/10/01 15:21:26;;;;;;;;;;;;;;;;;;4961275;28;20394;-94
2022/10/01 15:23:52;;;;;;;;;;;;;;;;;;4961351;28;19919;-94
2022/10/01 15:26:21;;;;;;;;;;;;;;;;;;4959541;28;19922;-91
2022/10/01 15:28:47;;;;;;;;;;;;;;;;;;4976089;28;19918;-86
2022/10/01 15:31:12;;;;;;;;;;;;;;;;;;4976432;28;20670;-87
2022/10/01 15:33:39;;;;;;;;;;;;;;;;;;4975921;28;19922;-87
2022/10/01 15:36:06;;;;;;;;;;;;;;;;;;4975692;28;19972;-86
2022/10/01 15:38:32;;;;;;;;;;;;;;;;;;4975333;28;19925;-85
2022/10/01 15:40:59;;;;;;;;;;;;;;;;;;4958224;28;19918;-84
2022/10/01 15:43:27;;;;;;;;;;;;;;;;;;4971578;28;19929;-86
2022/10/01 15:46:11;;;;;;;;;;;;;;;;;;4974883;28;19941;-86
2022/10/01 15:48:37;;;;;;;;;;;;;;;;;;4974484;28;19997;-85
2022/10/01 15:51:04;;;;;;;;;;;;;;;;;;4975365;28;20012;-86
2022/10/01 15:53:31;;;;;;;;;;;;;;;;;;4974314;28;20428;-86
2022/10/01 15:55:57;;;;;;;;;;;;;;;;;;4975026;28;20346;-85
2022/10/01 15:58:29;;;;;;;;;;;;;;;;;;4956778;28;19922;-87
2022/10/01 16:00:58;;;;;;;;;;;;;;;;;;4974600;28;19965;-86
2022/10/01 16:03:27;;;;;;;;;;;;;;;;;;4957765;28;19925;-88
2022/10/01 16:05:54;;;;;;;;;;;;;;;;;;4975435;28;19918;-85
2022/10/01 16:08:20;;;;;;;;;;;;;;;;;;4975143;28;19976;-87
2022/10/01 16:10:47;;;;;;;;;;;;;;;;;;4975085;28;19929;-87
2022/10/01 16:13:31;;;;;;;;;;;;;;;;;;4974560;28;19918;-87
2022/10/01 16:16:12;;;;;;;;;;;;;;;;;;4957631;28;19929;-85
2022/10/01 16:18:37;;;;;;;;;;;;;;;;;;4957258;28;20008;-86
2022/10/01 16:21:04;;;;;;;;;;;;;;;;;;4957529;28;19965;-85
2022/10/01 16:23:39;;;;;;;;;;;;;;;;;;4958245;28;20289;-87
2022/10/01 16:26:05;;;;;;;;;;;;;;;;;;4974917;28;20329;-86
2022/10/01 16:28:32;;;;;;;;;;;;;;;;;;4957714;28;19940;-92
2022/10/01 16:30:59;;;;;;;;;;;;;;;;;;4975911;28;19918;-91
2022/10/01 16:33:28;;;;;;;;;;;;;;;;;;4957837;28;20428;-92
2022/10/01 16:36:06;;;;;;;;;;;;;;;;;;4958402;28;19930;-92
2022/10/01 16:38:32;;;;;;;;;;;;;;;;;;4957349;28;19918;-94
2022/10/01 16:40:57;;;;;;;;;;;;;;;;;;4959650;28;19929;-93
2022/10/01 16:43:23;;;;;;;;;;;;;;;;;;4957432;28;20387;-93
2022/10/01 16:45:48;;;;;;;;;;;;;;;;;;4958617;28;20486;-92
2022/10/01 16:48:15;;;;;;;;;;;;;;;;;;4975629;28;20062;-93
2022/10/01 16:50:41;;;;;;;;;;;;;;;;;;4958784;28;20417;-94
2022/10/01 16:53:10;;;;;;;;;;;;;;;;;;4958936;28;19918;-94
2022/10/01 16:55:36;;;;;;;;;;;;;;;;;;4958541;28;19922;-94
2022/10/01 16:58:03;;;;;;;;;;;;;;;;;;4957432;28;19945;-93
2022/10/01 17:00:28;;;;;;;;;;;;;;;;;;4975198;28;19922;-94
2022/10/01 17:02:54;;;;;;;;;;;;;;;;;;4975243;28;19968;-94
2022/10/01 17:05:27;;;;;;;;;;;;;;;;;;4958137;28;19921;-93
2022/10/01 17:07:55;;;;;;;;;;;;;;;;;;4958290;28;20429;-92
2022/10/01 17:10:21;;;;;;;;;;;;;;;;;;4957749;28;19918;-93
2022/10/01 17:12:50;;;;;;;;;;;;;;;;;;4943143;28;19929;-92
2022/10/01 17:15:17;;;;;;;;;;;;;;;;;;4926590;29;19931;-93
2022/10/01 17:17:44;;;;;;;;;;;;;;;;;;4928024;28;19922;-92
2022/10/01 17:20:09;;;;;;;;;;;;;;;;;;4930119;29;20170;-93
2022/10/01 17:22:35;;;;;;;;;;;;;;;;;;4924484;28;19922;-92
2022/10/01 17:25:00;;;;;;;;;;;;;;;;;;4930610;29;19990;-92